Time;durP1;ratioP1;P1;durP2;ratioP2;P2;SDS_P1;SDS_P2;PMS_P1;PMS_P2;Temp;Humidity;BMP_temperature;BMP_pressure;BME280_temperature;BME280_humidity;BME280_pressure;Samples;Min_cycle;Max_cycle;Signal;HPM_P1;HPM_P2
2023/04/04 00:00:40;;;;;;;1.87;1.77;;;;;;;4.17;47.15;103167.56;6204160;28;22639;-70
2023/04/04 00:04:01;;;;;;;2.80;1.47;;;;;;;4.26;46.51;103173.22;6201510;28;20562;-69
2023/04/04 00:07:23;;;;;;;5.03;2.63;;;;;;;4.20;47.18;103167.44;6221214;28;21005;-70
2023/04/04 00:10:44;;;;;;;4.77;1.43;;;;;;;4.12;47.47;103171.22;6189071;28;20671;-71
2023/04/04 00:14:05;;;;;;;2.50;1.80;;;;;;;4.27;47.07;103164.47;6209951;28;20511;-70
2023/04/04 00:17:26;;;;;;;4.67;1.53;;;;;;;4.10;47.48;103159.13;6210215;28;20224;-71
2023/04/04 00:20:47;;;;;;;2.23;2.03;;;;;;;4.22;47.86;103152.53;6184116;28;21370;-70
2023/04/04 00:24:09;;;;;;;6.37;2.00;;;;;;;4.17;47.85;103157.09;6204551;28;20596;-71
2023/04/04 00:27:30;;;;;;;1.63;1.40;;;;;;;4.18;47.94;103148.34;6219101;28;20228;-71
2023/04/04 00:30:51;;;;;;;1.33;1.33;;;;;;;4.23;47.87;103154.22;6195726;28;20240;-70
2023/04/04 00:34:12;;;;;;;2.70;1.53;;;;;;;4.04;48.38;103141.16;6184128;28;20297;-70
2023/04/04 00:37:34;;;;;;;2.63;2.37;;;;;;;3.91;50.14;103138.22;6199505;28;20234;-70
2023/04/04 00:40:57;;;;;;;1.20;1.20;;;;;;;3.96;49.10;103138.03;6197593;28;20571;-70
2023/04/04 00:44:18;;;;;;;1.10;1.10;;;;;;;4.07;48.34;103134.00;6187880;28;20228;-70
2023/04/04 00:47:43;;;;;;;3.17;2.00;;;;;;;3.93;49.48;103135.53;6211600;28;20320;-71
2023/04/04 00:51:04;;;;;;;1.53;1.40;;;;;;;3.87;50.26;103139.28;6486672;23;20220;-69
2023/04/04 00:54:25;;;;;;;2.27;1.30;;;;;;;3.81;50.09;103138.72;6116698;28;20880;-71
2023/04/04 00:57:48;;;;;;;2.00;1.90;;;;;;;3.87;50.58;103130.59;6116152;28;20234;-70
2023/04/04 01:01:10;;;;;;;1.97;1.73;;;;;;;3.93;50.30;103132.94;6119941;28;20597;-70
2023/04/04 01:04:31;;;;;;;1.83;1.67;;;;;;;3.85;50.80;103127.19;6107986;28;20238;-70
2023/04/04 01:07:52;;;;;;;1.30;1.20;;;;;;;3.87;50.26;103130.59;6133729;28;20612;-70
2023/04/04 01:11:15;;;;;;;3.97;1.70;;;;;;;3.80;51.25;103124.81;6122227;28;20235;-70
2023/04/04 01:14:39;;;;;;;2.47;1.73;;;;;;;3.69;51.55;103125.28;6132058;28;20230;-70
2023/04/04 01:18:02;;;;;;;1.97;1.50;;;;;;;3.73;51.37;103121.63;6124297;28;20238;-70
2023/04/04 01:21:26;;;;;;;3.00;1.47;;;;;;;3.73;51.33;103121.63;6118034;28;20266;-70
2023/04/04 01:24:49;;;;;;;1.80;1.67;;;;;;;3.72;50.93;103121.69;6122250;28;20650;-70
2023/04/04 01:28:12;;;;;;;1.30;1.20;;;;;;;3.65;51.30;103117.63;6118207;28;20235;-70
2023/04/04 01:31:40;;;;;;;2.00;1.43;;;;;;;3.60;51.53;103111.78;6115828;28;20230;-69
2023/04/04 01:35:13;;;;;;;1.63;1.53;;;;;;;3.59;51.15;103110.09;6117710;28;20667;-70
2023/04/04 01:38:50;;;;;;;3.27;1.90;;;;;;;3.50;51.36;103103.50;6092514;28;20234;-71
2023/04/04 01:42:12;;;;;;;2.10;1.50;;;;;;;3.50;52.04;103094.81;6122199;28;20292;-69
2023/04/04 01:45:36;;;;;;;4.87;1.43;;;;;;;3.57;51.38;103088.44;6120462;28;21403;-70
2023/04/04 01:49:03;;;;;;;1.17;1.10;;;;;;;3.45;51.85;103100.25;6108010;28;20224;-70
2023/04/04 01:52:28;;;;;;;1.40;1.13;;;;;;;3.49;52.88;103093.97;6137922;28;20324;-70
2023/04/04 01:55:49;;;;;;;1.10;1.00;;;;;;;3.47;52.12;103100.19;6106503;28;20724;-69
2023/04/04 01:59:11;;;;;;;3.07;2.03;;;;;;;3.25;53.77;103092.44;6118485;28;20234;-69
2023/04/04 02:02:33;;;;;;;3.77;1.50;;;;;;;3.35;53.22;103085.91;6125024;28;20231;-70
2023/04/04 02:05:54;;;;;;;1.67;1.57;;;;;;;3.18;54.05;103076.19;6107351;28;20238;-70
2023/04/04 02:09:15;;;;;;;1.60;1.50;;;;;;;3.31;54.32;103074.75;6138931;28;20860;-70
2023/04/04 02:12:36;;;;;;;1.23;1.13;;;;;;;3.52;52.82;103075.56;6131181;28;20584;-71
2023/04/04 02:15:58;;;;;;;5.07;2.10;;;;;;;3.44;54.34;103080.28;6113483;28;20233;-70
2023/04/04 02:19:20;;;;;;;5.57;1.20;;;;;;;3.54;52.01;103081.56;6142756;28;20601;-70
2023/04/04 02:22:41;;;;;;;0.90;0.90;;;;;;;3.55;52.76;103078.03;6148945;28;20278;-69
2023/04/04 02:26:02;;;;;;;1.60;1.50;;;;;;;3.53;52.54;103072.03;6150936;28;20687;-70
2023/04/04 02:29:24;;;;;;;2.20;2.10;;;;;;;3.21;54.36;103083.03;6134789;28;20249;-70
2023/04/04 02:32:45;;;;;;;1.37;1.10;;;;;;;3.27;53.83;103075.78;6140977;28;20782;-70
2023/04/04 02:36:11;;;;;;;1.73;1.63;;;;;;;3.36;53.21;103070.19;6150885;28;20238;-70
2023/04/04 02:39:33;;;;;;;1.73;1.63;;;;;;;3.16;54.70;103072.81;6124433;28;20235;-70
2023/04/04 02:42:54;;;;;;;2.27;1.20;;;;;;;3.20;55.13;103070.91;6146092;28;20239;-70
2023/04/04 02:46:15;;;;;;;2.60;1.30;;;;;;;3.19;54.00;103077.03;6149151;28;20321;-70
2023/04/04 02:49:36;;;;;;;4.83;1.27;;;;;;;3.26;52.99;103070.63;6127460;28;20619;-69
2023/04/04 02:53:01;;;;;;;1.20;1.10;;;;;;;3.30;53.31;103064.38;6121567;28;20242;-70
2023/04/04 02:56:24;;;;;;;1.40;1.13;;;;;;;3.26;52.82;103070.63;6131798;28;20302;-69
2023/04/04 02:59:45;;;;;;;2.10;1.10;;;;;;;3.09;55.55;103071.38;6122558;28;20321;-70
2023/04/04 03:03:06;;;;;;;3.17;2.17;;;;;;;3.16;54.44;103072.81;6114751;28;20230;-70
2023/04/04 03:06:33;;;;;;;3.63;1.60;;;;;;;3.13;54.20;103072.09;6121052;28;20242;-70
2023/04/04 03:09:55;;;;;;;1.77;1.67;;;;;;;3.08;54.92;103078.34;6125434;28;20238;-70
2023/04/04 03:13:17;;;;;;;1.33;1.20;;;;;;;3.14;55.50;103079.00;6124102;28;20234;-70
2023/04/04 03:16:39;;;;;;;1.87;1.57;;;;;;;3.05;56.75;103073.25;6128311;28;20298;-71
2023/04/04 03:20:01;;;;;;;1.90;1.67;;;;;;;3.09;56.71;103080.03;6139053;28;20226;-70
2023/04/04 03:23:22;;;;;;;1.30;1.20;;;;;;;2.97;57.36;103072.72;6134425;28;20243;-70
2023/04/04 03:26:44;;;;;;;1.50;1.40;;;;;;;3.05;55.72;103069.78;6124506;28;20242;-70
2023/04/04 03:30:08;;;;;;;1.63;1.53;;;;;;;2.96;56.64;103075.38;6129419;28;20785;-70
2023/04/04 03:33:29;;;;;;;1.63;1.53;;;;;;;3.04;55.57;103065.50;6134382;28;20291;-70
2023/04/04 03:36:52;;;;;;;1.93;1.60;;;;;;;3.00;54.49;103062.16;6149962;28;20231;-71
2023/04/04 03:40:14;;;;;;;12.57;1.80;;;;;;;2.87;56.46;103068.81;6111603;28;20239;-70
2023/04/04 03:43:36;;;;;;;2.10;1.23;;;;;;;2.86;55.23;103064.50;6142483;28;20274;-71
2023/04/04 03:46:57;;;;;;;1.97;1.80;;;;;;;2.81;55.21;103066.47;6144313;28;20535;-70
2023/04/04 03:50:18;;;;;;;2.77;1.70;;;;;;;2.83;54.98;103067.25;6118118;28;20560;-70
2023/04/04 03:53:44;;;;;;;4.70;2.03;;;;;;;2.84;55.43;103071.56;6122765;28;20913;-70
2023/04/04 03:57:05;;;;;;;6.33;5.23;;;;;;;2.77;56.07;103057.06;6147376;28;20230;-70
2023/04/04 04:00:27;;;;;;;15.63;9.63;;;;;;;2.78;55.87;103060.50;6114826;28;20235;-70
2023/04/04 04:03:48;;;;;;;14.90;7.73;;;;;;;2.77;56.29;103056.22;6115766;28;20646;-69
2023/04/04 04:07:09;;;;;;;3.73;3.03;;;;;;;2.65;56.46;103049.75;6141258;28;20620;-70
2023/04/04 04:10:30;;;;;;;1.30;1.30;;;;;;;2.66;55.90;103048.84;6134847;28;20545;-70
2023/04/04 04:13:50;;;;;;;1.63;1.30;;;;;;;2.70;56.09;103048.66;6122588;28;20234;-70
2023/04/04 04:17:13;;;;;;;2.47;1.27;;;;;;;2.81;55.71;103043.00;6123172;28;20310;-70
2023/04/04 04:20:34;;;;;;;3.50;1.77;;;;;;;2.74;56.21;103049.34;6116381;28;21119;-70
2023/04/04 04:23:55;;;;;;;3.40;1.73;;;;;;;2.74;56.23;103045.00;6128543;28;20555;-71
2023/04/04 04:27:16;;;;;;;2.50;1.80;;;;;;;2.68;56.69;103044.41;6128166;28;20815;-69
2023/04/04 04:30:37;;;;;;;2.33;1.97;;;;;;;2.63;57.58;103052.44;6128074;28;20571;-70
2023/04/04 04:33:59;;;;;;;2.30;1.57;;;;;;;2.69;57.27;103051.34;6131139;28;21417;-71
2023/04/04 04:37:24;;;;;;;2.73;1.70;;;;;;;2.74;56.66;103052.81;6127071;28;20238;-69
2023/04/04 04:40:48;;;;;;;9.00;1.50;;;;;;;2.54;57.12;103051.94;6120806;28;20300;-70
2023/04/04 04:44:17;;;;;;;3.07;1.57;;;;;;;2.53;56.95;103047.63;6120397;28;20607;-70
2023/04/04 04:47:37;;;;;;;1.30;1.20;;;;;;;2.48;58.09;103047.00;6128630;28;20243;-69
2023/04/04 04:51:03;;;;;;;6.97;2.37;;;;;;;2.57;57.68;103051.81;6119655;28;20250;-70
2023/04/04 04:54:35;;;;;;;2.60;1.37;;;;;;;2.60;57.76;103047.34;6122238;28;20234;-70
2023/04/04 04:57:57;;;;;;;2.60;2.40;;;;;;;2.62;58.14;103053.34;6126695;28;20303;-70
2023/04/04 05:01:21;;;;;;;5.60;3.43;;;;;;;2.72;57.63;103053.78;6137712;28;20230;-71
2023/04/04 05:04:43;;;;;;;7.27;2.50;;;;;;;2.65;57.10;103054.97;6117057;28;20238;-70
2023/04/04 05:08:07;;;;;;;1.53;1.43;;;;;;;2.65;57.63;103054.97;6125753;28;20528;-69
2023/04/04 05:11:31;;;;;;;5.00;1.87;;;;;;;2.68;56.90;103057.47;6115090;28;20242;-70
2023/04/04 05:14:53;;;;;;;2.40;1.67;;;;;;;2.67;56.82;103055.75;6111500;28;20230;-70
2023/04/04 05:18:14;;;;;;;1.83;1.23;;;;;;;2.64;57.01;103061.09;6120186;28;20242;-70
2023/04/04 05:21:36;;;;;;;4.60;2.53;;;;;;;2.71;56.96;103059.94;6122675;28;20801;-71
2023/04/04 05:25:02;;;;;;;2.73;1.50;;;;;;;2.68;56.46;103055.69;6117926;28;20231;-71
2023/04/04 05:28:23;;;;;;;3.03;1.63;;;;;;;2.70;57.08;103048.66;6128083;28;20238;-71
2023/04/04 05:31:46;;;;;;;2.93;1.97;;;;;;;2.75;57.27;103058.88;6136089;28;20324;-71
2023/04/04 05:35:12;;;;;;;1.60;1.50;;;;;;;2.81;56.77;103050.81;6118867;28;20234;-70
2023/04/04 05:38:33;;;;;;;2.63;1.87;;;;;;;2.95;56.52;103048.47;6135840;28;20317;-73
2023/04/04 05:41:56;;;;;;;3.10;2.80;;;;;;;2.91;57.52;103040.84;6127507;28;20781;-72
2023/04/04 05:45:17;;;;;;;3.53;2.17;;;;;;;2.92;57.62;103050.38;6133659;28;20226;-73
2023/04/04 05:48:39;;;;;;;1.70;1.60;;;;;;;3.06;57.64;103053.22;6128660;28;20227;-71
2023/04/04 05:52:00;;;;;;;2.17;1.67;;;;;;;3.15;56.68;103057.22;6124576;28;20237;-70
2023/04/04 05:55:22;;;;;;;2.20;2.00;;;;;;;3.20;56.27;103061.31;6132834;28;20246;-71
2023/04/04 05:58:46;;;;;;;3.00;1.73;;;;;;;3.15;56.75;103063.28;6135629;28;20563;-72
2023/04/04 06:02:08;;;;;;;1.30;1.20;;;;;;;3.24;56.81;103052.44;6135844;28;20246;-76
2023/04/04 06:05:35;;;;;;;3.80;3.23;;;;;;;3.34;55.59;103055.50;6123396;28;20231;-75
2023/04/04 06:08:55;;;;;;;2.00;1.80;;;;;;;3.40;55.64;103063.88;6115172;28;20250;-73
2023/04/04 06:12:16;;;;;;;1.23;1.23;;;;;;;3.50;55.93;103064.34;6131654;28;20269;-71
2023/04/04 06:15:38;;;;;;;1.90;1.23;;;;;;;3.66;54.92;103054.06;6110881;28;20257;-70
2023/04/04 06:19:00;;;;;;;1.27;1.27;;;;;;;3.75;55.26;103056.25;6120039;28;20238;-69
2023/04/04 06:22:20;;;;;;;4.37;1.57;;;;;;;3.51;55.30;103055.59;6147962;28;20242;-71
2023/04/04 06:25:44;;;;;;;1.10;1.10;;;;;;;3.64;55.21;103061.94;6118881;28;20265;-70
2023/04/04 06:29:05;;;;;;;1.87;1.77;;;;;;;3.80;54.32;103061.28;6101283;28;20643;-72
2023/04/04 06:32:32;;;;;;;3.00;1.83;;;;;;;3.90;53.77;103057.31;6132887;28;20223;-71
2023/04/04 06:35:53;;;;;;;2.53;2.33;;;;;;;3.77;54.58;103064.88;6106579;28;20235;-71
2023/04/04 06:39:15;;;;;;;2.67;2.00;;;;;;;3.67;54.80;103060.97;6132000;28;20355;-70
2023/04/04 06:42:38;;;;;;;1.47;1.37;;;;;;;3.72;54.79;103052.00;6142812;28;20231;-72
2023/04/04 06:46:00;;;;;;;1.80;1.73;;;;;;;3.90;54.57;103052.94;6136255;28;20498;-73
2023/04/04 06:49:22;;;;;;;2.40;1.90;;;;;;;4.07;53.94;103058.22;6122857;28;20281;-72
2023/04/04 06:52:43;;;;;;;2.63;1.60;;;;;;;4.24;53.49;103061.81;6138492;28;20582;-74
2023/04/04 06:56:05;;;;;;;2.30;2.03;;;;;;;4.27;52.52;103059.06;6141118;28;20238;-75
2023/04/04 06:59:26;;;;;;;2.10;1.60;;;;;;;4.33;53.35;103059.59;6110804;28;20656;-75
2023/04/04 07:02:47;;;;;;;4.03;1.57;;;;;;;4.18;52.08;103057.72;6131886;28;20222;-70
2023/04/04 07:06:10;;;;;;;3.07;1.80;;;;;;;4.37;51.81;103058.53;6135087;28;20655;-70
2023/04/04 07:09:31;;;;;;;2.90;1.80;;;;;;;3.99;53.07;103055.13;6136917;28;20589;-75
2023/04/04 07:12:52;;;;;;;3.77;2.10;;;;;;;3.94;52.85;103051.03;6152199;28;20333;-74
2023/04/04 07:16:13;;;;;;;3.53;1.70;;;;;;;4.06;53.31;103048.69;6147920;28;20801;-73
2023/04/04 07:19:34;;;;;;;3.50;1.90;;;;;;;4.39;52.35;103048.84;6119378;28;20774;-73
2023/04/04 07:22:56;;;;;;;2.27;1.77;;;;;;;4.05;52.53;103044.41;6147649;28;20270;-72
2023/04/04 07:26:17;;;;;;;4.30;2.30;;;;;;;4.31;51.63;103042.28;6147234;28;20232;-72
2023/04/04 07:29:38;;;;;;;1.73;1.60;;;;;;;4.12;52.11;103043.16;6121499;28;20382;-73
2023/04/04 07:32:59;;;;;;;3.80;2.77;;;;;;;4.27;52.24;103038.16;6127525;28;20231;-72
2023/04/04 07:36:20;;;;;;;2.07;1.80;;;;;;;4.34;50.97;103037.75;6140771;28;20234;-73
2023/04/04 07:39:42;;;;;;;3.83;1.73;;;;;;;4.50;49.54;103043.09;6121131;28;20585;-69
2023/04/04 07:43:03;;;;;;;1.13;1.10;;;;;;;4.69;49.79;103038.66;6137801;28;20317;-72
2023/04/04 07:46:26;;;;;;;4.10;1.80;;;;;;;4.92;49.76;103036.66;6147699;28;20545;-71
2023/04/04 07:49:47;;;;;;;3.40;1.37;;;;;;;5.08;47.72;103045.41;6124421;28;20227;-71
2023/04/04 07:53:08;;;;;;;1.80;1.70;;;;;;;4.75;47.97;103042.72;6140294;28;20328;-70
2023/04/04 07:56:30;;;;;;;1.80;1.37;;;;;;;4.86;48.67;103037.81;6121368;28;20246;-70
2023/04/04 07:59:50;;;;;;;2.40;1.73;;;;;;;5.39;48.47;103042.91;6127068;28;20239;-72
2023/04/04 08:03:12;;;;;;;3.73;2.23;;;;;;;5.24;47.71;103048.91;6126954;28;20299;-70
2023/04/04 08:06:33;;;;;;;2.90;2.43;;;;;;;4.78;48.61;103035.56;6135386;28;20774;-71
2023/04/04 08:09:54;;;;;;;1.87;1.53;;;;;;;5.32;47.35;103038.06;6136024;28;20578;-74
2023/04/04 08:13:16;;;;;;;2.13;1.80;;;;;;;5.23;48.19;103028.91;6139774;28;20238;-68
2023/04/04 08:16:37;;;;;;;1.77;1.60;;;;;;;5.59;47.50;103028.72;6154315;28;20329;-70
2023/04/04 08:19:58;;;;;;;1.37;1.27;;;;;;;5.99;46.64;103021.34;6133184;28;20231;-68
2023/04/04 08:23:19;;;;;;;2.17;2.03;;;;;;;6.54;47.61;103023.47;6134192;28;20239;-67
2023/04/04 08:26:39;;;;;;;1.30;1.20;;;;;;;7.10;46.75;103023.56;6137970;28;20680;-68
2023/04/04 08:30:03;;;;;;;2.40;1.73;;;;;;;7.57;44.92;103027.72;6145786;28;20254;-67
2023/04/04 08:33:24;;;;;;;2.67;1.57;;;;;;;7.62;41.96;103009.88;6131616;28;20669;-68
2023/04/04 08:36:45;;;;;;;4.17;1.57;;;;;;;7.52;41.38;103006.13;6144361;28;20342;-67
2023/04/04 08:40:07;;;;;;;5.13;1.43;;;;;;;7.37;41.79;103009.72;6124208;28;20542;-75
2023/04/04 08:43:31;;;;;;;3.17;1.50;;;;;;;6.65;42.14;103013.19;6141424;28;20298;-74
2023/04/04 08:46:55;;;;;;;2.30;2.03;;;;;;;6.75;41.90;103011.72;6138639;28;20238;-73
2023/04/04 08:50:16;;;;;;;8.40;2.10;;;;;;;7.05;41.34;103011.66;6138602;28;21342;-70
2023/04/04 08:53:38;;;;;;;0.93;0.93;;;;;;;7.34;41.64;103008.09;6142018;28;20277;-73
2023/04/04 08:57:00;;;;;;;2.03;1.40;;;;;;;6.72;41.18;103014.53;6151203;28;20234;-73
2023/04/04 09:00:22;;;;;;;3.63;1.40;;;;;;;6.62;41.47;103018.59;6116137;28;20231;-69
2023/04/04 09:03:45;;;;;;;3.70;1.73;;;;;;;7.02;40.34;103012.69;6126235;28;20516;-69
2023/04/04 09:07:07;;;;;;;2.93;2.13;;;;;;;7.56;40.13;103012.88;6145913;28;20246;-69
2023/04/04 09:10:28;;;;;;;1.53;1.43;;;;;;;7.79;39.79;103006.19;6126326;28;20242;-70
2023/04/04 09:13:51;;;;;;;6.23;2.10;;;;;;;7.32;37.16;102999.47;6150792;28;20226;-70
2023/04/04 09:17:12;;;;;;;2.17;1.40;;;;;;;7.67;37.49;102999.09;6150058;28;20270;-70
2023/04/04 09:20:42;;;;;;;1.50;1.40;;;;;;;7.50;36.47;103002.75;6141717;28;20246;-70
2023/04/04 09:24:04;;;;;;;1.20;0.97;;;;;;;7.52;37.47;102995.59;6141069;28;20317;-69
2023/04/04 09:27:25;;;;;;;4.60;2.17;;;;;;;7.51;37.05;102996.53;6155095;28;20230;-69
2023/04/04 09:30:48;;;;;;;1.80;1.70;;;;;;;7.76;37.53;102998.47;6154452;28;20247;-69
2023/04/04 09:34:10;;;;;;;8.27;1.73;;;;;;;8.14;35.77;102996.84;6150313;28;20258;-69
2023/04/04 09:37:33;;;;;;;2.70;1.50;;;;;;;8.11;34.85;103002.34;6160197;28;20505;-70
2023/04/04 09:40:54;;;;;;;1.20;1.10;;;;;;;8.40;35.33;102987.28;6157689;28;20235;-70
2023/04/04 09:44:16;;;;;;;3.03;2.17;;;;;;;8.56;33.67;102981.88;6154778;28;20274;-70
2023/04/04 09:47:41;;;;;;;1.23;1.10;;;;;;;8.98;33.88;102977.25;6153900;28;20586;-70
2023/04/04 09:51:05;;;;;;;1.13;0.90;;;;;;;9.39;32.07;102983.13;6147646;28;20246;-70
2023/04/04 09:54:30;;;;;;;3.00;1.47;;;;;;;9.21;32.93;102973.88;6157354;28;20480;-70
2023/04/04 09:57:51;;;;;;;2.00;1.50;;;;;;;9.07;31.99;102976.59;6149749;28;20676;-70
2023/04/04 10:01:12;;;;;;;3.33;2.07;;;;;;;8.78;31.87;102979.47;6150547;28;20225;-70
2023/04/04 10:04:35;;;;;;;4.83;1.50;;;;;;;9.18;32.02;102979.34;6142944;28;20503;-69
2023/04/04 10:07:57;;;;;;;0.90;0.90;;;;;;;10.10;30.50;102965.69;6142537;28;20239;-71
2023/04/04 10:11:31;;;;;;;1.07;0.97;;;;;;;10.67;30.00;102959.63;6153226;28;20600;-72
2023/04/04 10:14:56;;;;;;;1.00;1.00;;;;;;;10.88;33.69;102965.91;6152751;28;20243;-72
2023/04/04 10:18:18;;;;;;;2.30;1.37;;;;;;;10.94;33.49;102957.53;6142943;28;20247;-71
2023/04/04 10:21:39;;;;;;;0.90;0.80;;;;;;;10.94;29.14;102953.09;6143383;28;20242;-69
2023/04/04 10:25:00;;;;;;;2.50;1.63;;;;;;;11.27;28.66;102954.91;6149923;28;20502;-70
2023/04/04 10:28:23;;;;;;;1.00;0.90;;;;;;;11.61;27.45;102952.19;5982853;28;20230;-70
2023/04/04 10:31:49;;;;;;;0.80;0.80;;;;;;;11.73;27.50;102950.38;6151078;28;20234;-69
2023/04/04 10:35:11;;;;;;;5.20;3.90;;;;;;;11.99;27.00;102944.66;6161403;28;20246;-70
2023/04/04 10:38:42;;;;;;;1.83;1.73;;;;;;;12.01;27.50;102947.16;6160207;28;20223;-70
2023/04/04 10:42:06;;;;;;;2.73;1.87;;;;;;;11.76;27.20;102936.88;6149542;28;20250;-73
2023/04/04 10:45:29;;;;;;;2.20;1.70;;;;;;;11.90;25.64;102934.84;6148976;28;20258;-72
2023/04/04 10:48:50;;;;;;;0.80;0.80;;;;;;;11.73;24.46;102927.41;6145236;28;20246;-74
2023/04/04 10:52:12;;;;;;;1.67;1.20;;;;;;;11.41;24.75;102930.00;6158594;28;20234;-74
2023/04/04 10:55:34;;;;;;;0.70;0.70;;;;;;;11.50;24.33;102934.56;6139439;28;20697;-73
2023/04/04 10:59:10;;;;;;;1.20;1.20;;;;;;;11.39;24.50;102928.44;6144632;28;20309;-69
2023/04/04 11:02:45;;;;;;;1.90;0.90;;;;;;;10.70;23.68;102930.34;6146273;28;20604;-71
2023/04/04 11:06:14;;;;;;;0.80;0.80;;;;;;;12.49;22.61;102925.50;6150534;28;20235;-72
2023/04/04 11:09:50;;;;;;;2.53;0.70;;;;;;;13.52;21.06;102918.31;6143948;28;20261;-69
2023/04/04 11:13:15;;;;;;;1.10;0.60;;;;;;;14.50;20.14;102913.69;6142205;28;20234;-69
2023/04/04 11:16:46;;;;;;;0.80;0.70;;;;;;;16.37;18.89;102905.94;6151453;28;20238;-70
2023/04/04 11:20:09;;;;;;;0.70;0.70;;;;;;;17.45;16.53;102904.47;6147460;28;20234;-70
2023/04/04 11:23:59;;;;;;;0.50;0.50;;;;;;;21.48;13.21;102892.56;6148813;28;20486;-72
2023/04/04 11:27:21;;;;;;;1.27;0.60;;;;;;;20.10;12.28;102883.44;6157459;28;20235;-71
2023/04/04 11:30:49;;;;;;;0.60;0.60;;;;;;;18.89;13.08;102894.91;6156008;28;20357;-70
2023/04/04 11:34:11;;;;;;;5.60;0.87;;;;;;;18.14;14.80;102881.00;6153151;28;20515;-72
2023/04/04 11:37:43;;;;;;;0.57;0.57;;;;;;;15.34;16.65;102877.22;6151004;28;20242;-72
2023/04/04 11:41:06;;;;;;;1.77;0.80;;;;;;;13.44;19.06;102883.66;6142357;28;20238;-70
2023/04/04 11:44:29;;;;;;;1.17;1.00;;;;;;;13.37;20.02;102879.84;6157541;28;20235;-71
2023/04/04 11:47:50;;;;;;;1.07;1.07;;;;;;;13.12;19.84;102878.50;6154314;28;20242;-72
2023/04/04 11:51:11;;;;;;;1.90;1.00;;;;;;;11.78;21.24;102877.59;6153268;28;20242;-73
2023/04/04 11:54:34;;;;;;;1.07;0.83;;;;;;;11.96;21.51;102872.63;6147831;28;20231;-70
2023/04/04 11:57:58;;;;;;;0.50;0.47;;;;;;;11.49;21.42;102866.75;6153008;28;20683;-71
2023/04/04 12:01:19;;;;;;;1.93;0.87;;;;;;;12.78;20.07;102859.44;6152701;28;20234;-72
2023/04/04 12:04:43;;;;;;;1.93;1.20;;;;;;;13.10;19.70;102848.66;6155297;28;20508;-71
2023/04/04 12:08:04;;;;;;;0.73;0.73;;;;;;;15.32;18.33;102852.59;6147000;28;20516;-73
2023/04/04 12:11:28;;;;;;;1.03;0.90;;;;;;;18.81;15.30;102842.25;6152265;28;20258;-73
2023/04/04 12:14:49;;;;;;;1.63;1.00;;;;;;;20.44;14.15;102850.75;6143313;28;20230;-73
2023/04/04 12:18:09;;;;;;;3.27;0.80;;;;;;;19.91;13.53;102854.44;6156764;28;20227;-72
2023/04/04 12:21:31;;;;;;;0.87;0.53;;;;;;;18.45;14.46;102845.38;6151370;28;20321;-74
2023/04/04 12:24:52;;;;;;;0.67;0.67;;;;;;;18.21;15.17;102852.59;6158069;28;20238;-74
2023/04/04 12:28:14;;;;;;;1.23;0.60;;;;;;;16.45;16.06;102848.34;6154390;28;20230;-77
2023/04/04 12:31:38;;;;;;;0.60;0.50;;;;;;;17.31;16.57;102849.88;6144697;28;20238;-76
2023/04/04 12:35:01;;;;;;;1.50;0.70;;;;;;;21.26;13.07;102828.25;6146192;28;20250;-74
2023/04/04 12:38:22;;;;;;;0.50;0.50;;;;;;;20.50;13.02;102829.59;6148673;28;20246;-70
2023/04/04 12:41:52;;;;;;;0.63;0.60;;;;;;;19.59;14.00;102822.56;6153227;28;20250;-70
2023/04/04 12:45:14;;;;;;;1.08;0.77;;;;;;;20.52;13.44;102814.97;6147765;28;20688;-73
2023/04/04 12:48:36;;;;;;;7.28;5.20;;;;;;;20.25;12.79;102815.59;6138123;28;20230;-73
2023/04/04 12:51:59;;;;;;;9.80;1.48;;;;;;;21.52;12.63;102808.88;6148528;28;20250;-73
2023/04/04 12:55:21;;;;;;;1.10;0.43;;;;;;;22.14;11.37;102801.72;6147575;28;20601;-71
2023/04/04 12:58:46;;;;;;;0.70;0.70;;;;;;;20.74;12.02;102789.84;6149181;28;20231;-71
2023/04/04 13:02:12;;;;;;;1.73;0.80;;;;;;;20.03;13.67;102802.06;6150009;28;20237;-71
2023/04/04 13:05:34;;;;;;;1.92;1.10;;;;;;;18.53;14.64;102796.34;6150452;28;20258;-72
2023/04/04 13:08:55;;;;;;;2.00;1.77;;;;;;;16.78;15.05;102794.19;6151647;28;20230;-69
2023/04/04 13:12:17;;;;;;;1.30;0.87;;;;;;;16.64;16.26;102787.66;6152629;28;20230;-71
2023/04/04 13:15:50;;;;;;;2.70;0.87;;;;;;;15.22;17.35;102792.44;6150164;28;20234;-72
2023/04/04 13:19:13;;;;;;;0.60;0.60;;;;;;;15.70;15.90;102790.22;6143966;28;20226;-74
2023/04/04 13:22:35;;;;;;;0.70;0.70;;;;;;;15.50;17.34;102788.72;6108384;28;20230;-73
2023/04/04 13:25:57;;;;;;;1.60;0.87;;;;;;;15.52;17.11;102778.75;6130857;28;20227;-71
2023/04/04 13:29:18;;;;;;;0.63;0.60;;;;;;;17.64;14.91;102778.66;6142629;28;20255;-70
2023/04/04 13:32:39;;;;;;;1.60;1.50;;;;;;;20.32;12.84;102763.72;6132281;28;20271;-74
2023/04/04 13:36:01;;;;;;;1.10;0.60;;;;;;;18.92;13.63;102755.41;6112116;28;20235;-70
2023/04/04 13:39:22;;;;;;;0.80;0.63;;;;;;;18.77;13.14;102758.81;6138002;28;20329;-71
2023/04/04 13:42:43;;;;;;;1.90;0.80;;;;;;;18.27;13.85;102761.03;6152574;28;20226;-70
2023/04/04 13:46:04;;;;;;;1.10;1.00;;;;;;;17.33;15.07;102754.47;6139980;28;20258;-70
2023/04/04 13:49:25;;;;;;;1.83;0.93;;;;;;;19.49;13.45;102750.44;6148533;28;20313;-70
2023/04/04 13:52:47;;;;;;;2.77;0.80;;;;;;;19.06;13.44;102733.22;6142487;28;20231;-70
2023/04/04 13:56:09;;;;;;;3.50;1.10;;;;;;;17.04;15.54;102743.41;6154975;28;20274;-72
2023/04/04 13:59:30;;;;;;;3.63;2.00;;;;;;;16.09;16.37;102736.56;6150481;28;20267;-70
2023/04/04 14:02:51;;;;;;;1.13;1.03;;;;;;;15.17;17.11;102734.34;6153440;28;20276;-72
2023/04/04 14:06:12;;;;;;;1.13;1.03;;;;;;;17.17;15.92;102721.59;6155741;28;20234;-70
2023/04/04 14:09:34;;;;;;;1.83;0.87;;;;;;;18.78;14.92;102716.84;6150712;28;20238;-72
2023/04/04 14:12:55;;;;;;;2.13;1.23;;;;;;;17.94;14.92;102712.19;6164136;28;20644;-71
2023/04/04 14:16:16;;;;;;;2.13;1.17;;;;;;;16.91;15.28;102708.38;6149580;28;20227;-70
2023/04/04 14:19:38;;;;;;;2.17;1.50;;;;;;;17.16;15.34;102703.91;6154939;28;20231;-71
2023/04/04 14:22:59;;;;;;;1.70;1.50;;;;;;;15.09;15.98;102702.38;6154622;28;20234;-70
2023/04/04 14:26:21;;;;;;;1.83;1.43;;;;;;;15.67;18.85;102708.00;6156205;28;22052;-68
2023/04/04 14:29:42;;;;;;;2.07;1.20;;;;;;;17.45;17.14;102690.88;6157814;28;20231;-72
2023/04/04 14:33:03;;;;;;;5.47;4.93;;;;;;;18.38;16.40;102699.16;6153615;28;20611;-73
2023/04/04 14:36:24;;;;;;;5.40;3.93;;;;;;;17.78;16.70;102697.03;6036579;28;20770;-72
2023/04/04 14:39:46;;;;;;;3.87;2.40;;;;;;;16.75;17.45;102686.00;6110541;28;20258;-73
2023/04/04 14:43:08;;;;;;;3.00;1.70;;;;;;;16.90;17.22;102688.06;6158643;28;20261;-71
2023/04/04 14:46:29;;;;;;;3.53;1.47;;;;;;;16.21;18.51;102694.50;6148676;28;20235;-73
2023/04/04 14:49:50;;;;;;;6.03;1.37;;;;;;;16.68;17.55;102685.00;6158453;28;20680;-71
2023/04/04 14:53:11;;;;;;;1.73;1.50;;;;;;;16.44;18.10;102681.41;6157207;28;20231;-69
2023/04/04 14:56:32;;;;;;;0.93;0.90;;;;;;;15.97;17.77;102673.91;6156763;28;20317;-69
2023/04/04 14:59:55;;;;;;;1.90;1.20;;;;;;;15.65;18.45;102675.38;6151830;28;20599;-72
2023/04/04 15:03:15;;;;;;;1.77;1.23;;;;;;;15.67;19.22;102672.56;6145536;28;20239;-69
2023/04/04 15:06:38;;;;;;;2.30;1.67;;;;;;;15.61;19.14;102671.34;6155823;28;20612;-68
2023/04/04 15:09:58;;;;;;;1.00;1.00;;;;;;;15.38;18.66;102671.00;6151511;28;20238;-71
2023/04/04 15:13:19;;;;;;;2.07;1.10;;;;;;;15.20;18.80;102659.56;6157056;28;20591;-69
2023/04/04 15:16:41;;;;;;;1.90;1.20;;;;;;;15.11;19.18;102660.50;6149157;28;20504;-70
2023/04/04 15:20:02;;;;;;;1.13;0.90;;;;;;;15.02;19.62;102662.25;6128635;28;20543;-71
2023/04/04 15:23:23;;;;;;;4.60;1.70;;;;;;;14.47;19.69;102666.00;6151470;28;20231;-70
2023/04/04 15:26:44;;;;;;;1.73;1.63;;;;;;;14.08;20.09;102665.34;6142702;28;20632;-69
2023/04/04 15:30:06;;;;;;;1.30;1.20;;;;;;;13.81;20.64;102653.72;6141592;28;20234;-70
2023/04/04 15:33:28;;;;;;;1.60;1.50;;;;;;;13.84;20.96;102656.06;6129217;28;20490;-70
2023/04/04 15:36:50;;;;;;;2.80;1.93;;;;;;;13.60;20.50;102650.44;6150036;28;20608;-69
2023/04/04 15:40:12;;;;;;;1.13;1.07;;;;;;;13.66;20.79;102650.69;6152678;28;20230;-70
2023/04/04 15:43:33;;;;;;;1.63;1.53;;;;;;;13.53;20.79;102641.41;6153421;28;20668;-71
2023/04/04 15:46:54;;;;;;;1.17;0.93;;;;;;;13.45;20.15;102641.25;6149635;28;20231;-70